sensor_id;sensor_type;location;lat;lon;timestamp;pressure;altitude;pressure_sealevel;temperature;humidity
13348;BME280;6743;49.934;9.138;2023-04-30T00:01:12;100878.41;;;12.49;100.00
13348;BME280;6743;49.934;9.138;2023-04-30T00:03:38;100883.91;;;12.47;100.00
13348;BME280;6743;49.934;9.138;2023-04-30T00:06:04;100880.41;;;12.47;100.00
13348;BME280;6743;49.934;9.138;2023-04-30T00:08:30;100882.38;;;12.45;100.00
13348;BME280;6743;49.934;9.138;2023-04-30T00:10:57;100878.38;;;12.41;100.00
13348;BME280;6743;49.934;9.138;2023-04-30T00:13:23;100874.06;;;12.40;100.00
13348;BME280;6743;49.934;9.138;2023-04-30T00:15:50;100879.72;;;12.37;100.00
13348;BME280;6743;49.934;9.138;2023-04-30T00:18:17;100884.66;;;12.32;100.00
13348;BME280;6743;49.934;9.138;2023-04-30T00:20:43;100875.84;;;12.31;100.00
13348;BME280;6743;49.934;9.138;2023-04-30T00:23:09;100879.53;;;12.30;100.00
13348;BME280;6743;49.934;9.138;2023-04-30T00:25:35;100876.19;;;12.28;100.00
13348;BME280;6743;49.934;9.138;2023-04-30T00:28:01;100885.16;;;12.27;100.00
13348;BME280;6743;49.934;9.138;2023-04-30T00:30:26;100879.16;;;12.25;100.00
13348;BME280;6743;49.934;9.138;2023-04-30T00:32:53;100886.62;;;12.21;100.00
13348;BME280;6743;49.934;9.138;2023-04-30T00:35:19;100889.16;;;12.23;100.00
13348;BME280;6743;49.934;9.138;2023-04-30T00:37:45;100891.28;;;12.19;100.00
13348;BME280;6743;49.934;9.138;2023-04-30T00:40:12;100884.97;;;12.20;100.00
13348;BME280;6743;49.934;9.138;2023-04-30T00:42:38;100890.44;;;12.19;100.00
13348;BME280;6743;49.934;9.138;2023-04-30T00:45:05;100890.59;;;12.17;100.00
13348;BME280;6743;49.934;9.138;2023-04-30T00:47:31;100896.94;;;12.16;100.00
13348;BME280;6743;49.934;9.138;2023-04-30T00:49:58;100888.13;;;12.16;100.00
13348;BME280;6743;49.934;9.138;2023-04-30T00:52:24;100891.75;;;12.15;100.00
13348;BME280;6743;49.934;9.138;2023-04-30T00:54:51;100886.59;;;12.13;100.00
13348;BME280;6743;49.934;9.138;2023-04-30T00:57:19;100890.72;;;12.08;100.00
13348;BME280;6743;49.934;9.138;2023-04-30T00:59:45;100895.91;;;12.09;100.00
13348;BME280;6743;49.934;9.138;2023-04-30T01:02:13;100900.53;;;12.07;100.00
13348;BME280;6743;49.934;9.138;2023-04-30T01:04:40;100898.72;;;12.08;100.00
13348;BME280;6743;49.934;9.138;2023-04-30T01:07:06;100897.34;;;12.04;100.00
13348;BME280;6743;49.934;9.138;2023-04-30T01:09:32;100901.81;;;12.03;100.00
13348;BME280;6743;49.934;9.138;2023-04-30T01:12:04;100902.00;;;12.02;100.00
13348;BME280;6743;49.934;9.138;2023-04-30T01:14:40;100902.00;;;12.02;100.00
13348;BME280;6743;49.934;9.138;2023-04-30T01:17:15;100898.97;;;11.97;100.00
13348;BME280;6743;49.934;9.138;2023-04-30T01:19:44;100900.12;;;11.94;100.00
13348;BME280;6743;49.934;9.138;2023-04-30T01:22:22;100910.09;;;11.92;100.00
13348;BME280;6743;49.934;9.138;2023-04-30T01:25:10;100906.75;;;11.90;100.00
13348;BME280;6743;49.934;9.138;2023-04-30T01:28:04;100923.72;;;11.89;100.00
13348;BME280;6743;49.934;9.138;2023-04-30T01:30:31;100914.06;;;11.88;100.00
13348;BME280;6743;49.934;9.138;2023-04-30T01:32:58;100911.41;;;11.88;100.00
13348;BME280;6743;49.934;9.138;2023-04-30T01:35:35;100916.03;;;11.86;100.00
13348;BME280;6743;49.934;9.138;2023-04-30T01:38:11;100927.34;;;11.88;100.00
13348;BME280;6743;49.934;9.138;2023-04-30T01:40:44;100919.38;;;11.88;100.00
13348;BME280;6743;49.934;9.138;2023-04-30T01:43:19;100924.00;;;11.86;100.00
13348;BME280;6743;49.934;9.138;2023-04-30T01:45:56;100925.84;;;11.86;100.00
13348;BME280;6743;49.934;9.138;2023-04-30T01:48:31;100917.34;;;11.82;100.00
13348;BME280;6743;49.934;9.138;2023-04-30T01:51:05;100923.81;;;11.79;100.00
13348;BME280;6743;49.934;9.138;2023-04-30T01:53:39;100925.78;;;11.77;100.00
13348;BME280;6743;49.934;9.138;2023-04-30T01:56:09;100926.22;;;11.73;100.00
13348;BME280;6743;49.934;9.138;2023-04-30T01:58:37;100922.88;;;11.71;100.00
13348;BME280;6743;49.934;9.138;2023-04-30T02:01:05;100934.66;;;11.68;100.00
13348;BME280;6743;49.934;9.138;2023-04-30T02:03:31;100935.47;;;11.69;100.00
13348;BME280;6743;49.934;9.138;2023-04-30T02:05:57;100933.16;;;11.66;100.00
13348;BME280;6743;49.934;9.138;2023-04-30T02:08:23;100930.62;;;11.64;100.00
13348;BME280;6743;49.934;9.138;2023-04-30T02:10:50;100932.47;;;11.64;100.00
13348;BME280;6743;49.934;9.138;2023-04-30T02:13:16;100923.00;;;11.61;100.00
13348;BME280;6743;49.934;9.138;2023-04-30T02:15:42;100917.47;;;11.55;100.00
13348;BME280;6743;49.934;9.138;2023-04-30T02:18:08;100918.81;;;11.59;100.00
13348;BME280;6743;49.934;9.138;2023-04-30T02:20:34;100917.12;;;11.58;100.00
13348;BME280;6743;49.934;9.138;2023-04-30T02:23:00;100927.63;;;11.59;100.00
13348;BME280;6743;49.934;9.138;2023-04-30T02:25:26;100924.13;;;11.59;100.00
13348;BME280;6743;49.934;9.138;2023-04-30T02:27:52;100933.09;;;11.58;100.00
13348;BME280;6743;49.934;9.138;2023-04-30T02:30:18;100929.72;;;11.56;100.00
13348;BME280;6743;49.934;9.138;2023-04-30T02:32:45;100933.56;;;11.53;100.00
13348;BME280;6743;49.934;9.138;2023-04-30T02:35:12;100924.91;;;11.51;100.00
13348;BME280;6743;49.934;9.138;2023-04-30T02:37:38;100931.19;;;11.50;100.00
13348;BME280;6743;49.934;9.138;2023-04-30T02:40:06;100932.34;;;11.48;100.00
13348;BME280;6743;49.934;9.138;2023-04-30T02:42:32;100931.53;;;11.47;100.00
13348;BME280;6743;49.934;9.138;2023-04-30T02:44:58;100932.34;;;11.48;100.00
13348;BME280;6743;49.934;9.138;2023-04-30T02:47:24;100927.19;;;11.46;100.00
13348;BME280;6743;49.934;9.138;2023-04-30T02:49:50;100925.66;;;11.43;100.00
13348;BME280;6743;49.934;9.138;2023-04-30T02:52:16;100929.84;;;11.46;100.00
13348;BME280;6743;49.934;9.138;2023-04-30T02:54:42;100935.44;;;11.43;100.00
13348;BME280;6743;49.934;9.138;2023-04-30T02:57:08;100926.66;;;11.42;100.00
13348;BME280;6743;49.934;9.138;2023-04-30T02:59:34;100924.97;;;11.41;100.00
13348;BME280;6743;49.934;9.138;2023-04-30T03:02:01;100927.63;;;11.41;100.00
13348;BME280;6743;49.934;9.138;2023-04-30T03:04:28;100922.50;;;11.40;100.00
13348;BME280;6743;49.934;9.138;2023-04-30T03:06:54;100915.81;;;11.36;100.00
13348;BME280;6743;49.934;9.138;2023-04-30T03:09:20;100924.47;;;11.38;100.00
13348;BME280;6743;49.934;9.138;2023-04-30T03:11:46;100926.44;;;11.36;100.00
13348;BME280;6743;49.934;9.138;2023-04-30T03:14:12;100922.09;;;11.35;100.00
13348;BME280;6743;49.934;9.138;2023-04-30T03:16:38;100931.87;;;11.34;100.00
13348;BME280;6743;49.934;9.138;2023-04-30T03:19:05;100938.22;;;11.33;100.00
13348;BME280;6743;49.934;9.138;2023-04-30T03:21:31;100934.53;;;11.34;100.00
13348;BME280;6743;49.934;9.138;2023-04-30T03:23:58;100927.59;;;11.33;100.00
13348;BME280;6743;49.934;9.138;2023-04-30T03:26:24;100927.41;;;11.35;100.00
13348;BME280;6743;49.934;9.138;2023-04-30T03:28:50;100931.87;;;11.34;100.00
13348;BME280;6743;49.934;9.138;2023-04-30T03:31:16;100931.87;;;11.34;100.00
13348;BME280;6743;49.934;9.138;2023-04-30T03:33:42;100935.56;;;11.33;100.00
13348;BME280;6743;49.934;9.138;2023-04-30T03:36:08;100933.19;;;11.30;100.00
13348;BME280;6743;49.934;9.138;2023-04-30T03:38:34;100931.53;;;11.29;100.00
13348;BME280;6743;49.934;9.138;2023-04-30T03:41:00;100932.50;;;11.28;100.00
13348;BME280;6743;49.934;9.138;2023-04-30T03:43:26;100931.84;;;11.26;100.00
13348;BME280;6743;49.934;9.138;2023-04-30T03:45:52;100928.34;;;11.26;100.00
13348;BME280;6743;49.934;9.138;2023-04-30T03:48:18;100928.16;;;11.27;100.00
13348;BME280;6743;49.934;9.138;2023-04-30T03:50:44;100928.34;;;11.26;100.00
13348;BME280;6743;49.934;9.138;2023-04-30T03:53:11;100930.16;;;11.25;100.00
13348;BME280;6743;49.934;9.138;2023-04-30T03:55:37;100919.53;;;11.25;100.00
13348;BME280;6743;49.934;9.138;2023-04-30T03:58:04;100916.50;;;11.20;100.00
13348;BME280;6743;49.934;9.138;2023-04-30T04:00:30;100920.81;;;11.21;100.00
13348;BME280;6743;49.934;9.138;2023-04-30T04:02:56;100922.50;;;11.22;100.00
13348;BME280;6743;49.934;9.138;2023-04-30T04:05:22;100916.50;;;11.20;100.00
13348;BME280;6743;49.934;9.138;2023-04-30T04:07:48;100921.81;;;11.20;100.00
13348;BME280;6743;49.934;9.138;2023-04-30T04:10:14;100922.13;;;11.17;100.00
13348;BME280;6743;49.934;9.138;2023-04-30T04:12:40;100918.13;;;11.13;100.00
13348;BME280;6743;49.934;9.138;2023-04-30T04:15:08;100924.09;;;11.15;100.00
13348;BME280;6743;49.934;9.138;2023-04-30T04:17:34;100923.44;;;11.13;100.00
13348;BME280;6743;49.934;9.138;2023-04-30T04:20:00;100926.88;;;11.14;100.00
13348;BME280;6743;49.934;9.138;2023-04-30T04:22:26;100926.09;;;11.13;100.00
13348;BME280;6743;49.934;9.138;2023-04-30T04:24:52;100933.50;;;11.10;100.00
13348;BME280;6743;49.934;9.138;2023-04-30T04:27:18;100932.37;;;11.12;100.00
13348;BME280;6743;49.934;9.138;2023-04-30T04:29:47;100926.09;;;11.13;100.00
13348;BME280;6743;49.934;9.138;2023-04-30T04:32:13;100930.56;;;11.13;100.00
13348;BME280;6743;49.934;9.138;2023-04-30T04:34:40;100936.72;;;11.13;100.00
13348;BME280;6743;49.934;9.138;2023-04-30T04:37:07;100934.84;;;11.14;100.00
13348;BME280;6743;49.934;9.138;2023-04-30T04:39:33;100921.53;;;11.05;100.00
13348;BME280;6743;49.934;9.138;2023-04-30T04:42:00;100942.00;;;11.13;100.00
13348;BME280;6743;49.934;9.138;2023-04-30T04:44:27;100947.47;;;11.12;100.00
13348;BME280;6743;49.934;9.138;2023-04-30T04:46:53;100943.66;;;11.14;100.00
13348;BME280;6743;49.934;9.138;2023-04-30T04:49:21;100949.81;;;11.15;100.00
13348;BME280;6743;49.934;9.138;2023-04-30T04:51:47;100950.66;;;11.15;100.00
13348;BME280;6743;49.934;9.138;2023-04-30T04:54:13;100948.97;;;11.14;100.00
13348;BME280;6743;49.934;9.138;2023-04-30T04:56:39;100943.28;;;11.09;100.00
13348;BME280;6743;49.934;9.138;2023-04-30T04:59:05;100952.03;;;11.19;100.00
13348;BME280;6743;49.934;9.138;2023-04-30T05:01:32;100960.00;;;11.19;100.00
13348;BME280;6743;49.934;9.138;2023-04-30T05:03:58;100948.34;;;11.20;100.00
13348;BME280;6743;49.934;9.138;2023-04-30T05:06:25;100955.19;;;11.23;100.00
13348;BME280;6743;49.934;9.138;2023-04-30T05:08:51;100954.22;;;11.24;100.00
13348;BME280;6743;49.934;9.138;2023-04-30T05:11:17;100951.56;;;11.24;100.00
13348;BME280;6743;49.934;9.138;2023-04-30T05:13:43;100956.59;;;11.27;100.00
13348;BME280;6743;49.934;9.138;2023-04-30T05:16:09;100950.59;;;11.25;100.00
13348;BME280;6743;49.934;9.138;2023-04-30T05:18:35;100953.75;;;11.28;100.00
13348;BME280;6743;49.934;9.138;2023-04-30T05:21:01;100959.06;;;11.28;100.00
13348;BME280;6743;49.934;9.138;2023-04-30T05:23:29;100956.13;;;11.31;100.00
13348;BME280;6743;49.934;9.138;2023-04-30T05:25:55;100958.31;;;11.36;100.00
13348;BME280;6743;49.934;9.138;2023-04-30T05:28:21;100955.34;;;11.39;100.00
13348;BME280;6743;49.934;9.138;2023-04-30T05:30:47;100958.84;;;11.39;100.00
13348;BME280;6743;49.934;9.138;2023-04-30T05:33:13;100943.56;;;11.41;100.00
13348;BME280;6743;49.934;9.138;2023-04-30T05:35:39;100949.28;;;11.47;100.00
13348;BME280;6743;49.934;9.138;2023-04-30T05:38:05;100954.28;;;11.50;100.00
13348;BME280;6743;49.934;9.138;2023-04-30T05:40:32;100950.47;;;11.52;100.00
13348;BME280;6743;49.934;9.138;2023-04-30T05:42:58;100946.31;;;11.50;100.00
13348;BME280;6743;49.934;9.138;2023-04-30T05:45:24;100955.31;;;11.57;100.00
13348;BME280;6743;49.934;9.138;2023-04-30T05:47:50;100963.66;;;11.62;100.00
13348;BME280;6743;49.934;9.138;2023-04-30T05:50:16;100958.87;;;11.65;100.00
13348;BME280;6743;49.934;9.138;2023-04-30T05:52:42;100937.56;;;11.57;100.00
13348;BME280;6743;49.934;9.138;2023-04-30T05:55:08;100961.50;;;11.75;100.00
13348;BME280;6743;49.934;9.138;2023-04-30T05:57:36;100957.38;;;11.80;100.00
13348;BME280;6743;49.934;9.138;2023-04-30T06:00:02;100951.59;;;11.85;100.00
13348;BME280;6743;49.934;9.138;2023-04-30T06:02:30;100952.28;;;11.87;100.00
13348;BME280;6743;49.934;9.138;2023-04-30T06:04:56;100948.00;;;11.94;100.00
13348;BME280;6743;49.934;9.138;2023-04-30T06:07:22;100951.00;;;11.99;100.00
13348;BME280;6743;49.934;9.138;2023-04-30T06:09:48;100959.34;;;12.04;100.00
13348;BME280;6743;49.934;9.138;2023-04-30T06:12:14;100957.06;;;12.09;100.00
13348;BME280;6743;49.934;9.138;2023-04-30T06:14:41;100951.13;;;12.15;100.00
13348;BME280;6743;49.934;9.138;2023-04-30T06:17:09;100951.47;;;12.20;100.00
13348;BME280;6743;49.934;9.138;2023-04-30T06:19:35;100943.50;;;12.20;100.00
13348;BME280;6743;49.934;9.138;2023-04-30T06:22:03;100950.34;;;12.31;100.00
13348;BME280;6743;49.934;9.138;2023-04-30T06:24:29;100951.03;;;12.33;100.00
13348;BME280;6743;49.934;9.138;2023-04-30T06:26:55;100958.38;;;12.39;100.00
13348;BME280;6743;49.934;9.138;2023-04-30T06:29:21;100954.41;;;12.43;100.00
13348;BME280;6743;49.934;9.138;2023-04-30T06:31:49;100957.56;;;12.47;100.00
13348;BME280;6743;49.934;9.138;2023-04-30T06:34:15;100954.59;;;12.50;100.00
13348;BME280;6743;49.934;9.138;2023-04-30T06:36:41;100950.97;;;12.51;100.00
13348;BME280;6743;49.934;9.138;2023-04-30T06:39:07;100947.66;;;12.57;100.00
13348;BME280;6743;49.934;9.138;2023-04-30T06:41:34;100945.47;;;12.60;100.00
13348;BME280;6743;49.934;9.138;2023-04-30T06:44:00;100946.00;;;12.64;100.00
13348;BME280;6743;49.934;9.138;2023-04-30T06:46:26;100950.84;;;12.69;100.00
13348;BME280;6743;49.934;9.138;2023-04-30T06:48:52;100952.84;;;12.75;100.00
13348;BME280;6743;49.934;9.138;2023-04-30T06:51:18;100949.03;;;12.77;100.00
13348;BME280;6743;49.934;9.138;2023-04-30T06:53:44;100947.38;;;12.76;100.00
13348;BME280;6743;49.934;9.138;2023-04-30T06:56:10;100945.72;;;12.83;100.00
13348;BME280;6743;49.934;9.138;2023-04-30T06:58:36;100953.22;;;12.88;100.00
13348;BME280;6743;49.934;9.138;2023-04-30T07:01:02;100949.41;;;12.90;100.00
13348;BME280;6743;49.934;9.138;2023-04-30T07:03:28;100953.41;;;12.94;100.00
13348;BME280;6743;49.934;9.138;2023-04-30T07:05:55;100949.09;;;13.01;100.00
13348;BME280;6743;49.934;9.138;2023-04-30T07:08:21;100947.59;;;13.07;100.00
13348;BME280;6743;49.934;9.138;2023-04-30T07:10:47;100945.44;;;13.11;100.00
13348;BME280;6743;49.934;9.138;2023-04-30T07:13:13;100949.47;;;13.15;100.00
13348;BME280;6743;49.934;9.138;2023-04-30T07:15:40;100949.16;;;13.18;100.00
13348;BME280;6743;49.934;9.138;2023-04-30T07:18:06;100941.84;;;13.20;100.00
13348;BME280;6743;49.934;9.138;2023-04-30T07:20:34;100949.50;;;13.23;100.00
13348;BME280;6743;49.934;9.138;2023-04-30T07:23:01;100946.50;;;13.26;100.00
13348;BME280;6743;49.934;9.138;2023-04-30T07:25:27;100944.31;;;13.29;100.00
13348;BME280;6743;49.934;9.138;2023-04-30T07:27:54;100943.66;;;13.35;100.00
13348;BME280;6743;49.934;9.138;2023-04-30T07:30:20;100948.84;;;13.45;100.00
13348;BME280;6743;49.934;9.138;2023-04-30T07:32:46;100940.34;;;13.50;100.00
13348;BME280;6743;49.934;9.138;2023-04-30T07:35:13;100939.66;;;13.56;100.00
13348;BME280;6743;49.934;9.138;2023-04-30T07:37:39;100939.19;;;13.60;100.00
13348;BME280;6743;49.934;9.138;2023-04-30T07:40:08;100941.34;;;13.65;100.00
13348;BME280;6743;49.934;9.138;2023-04-30T07:42:37;100934.50;;;13.70;100.00
13348;BME280;6743;49.934;9.138;2023-04-30T07:45:04;100940.50;;;13.72;100.00
13348;BME280;6743;49.934;9.138;2023-04-30T07:47:30;100934.47;;;13.78;100.00
13348;BME280;6743;49.934;9.138;2023-04-30T07:49:56;100941.31;;;13.81;100.00
13348;BME280;6743;49.934;9.138;2023-04-30T07:52:22;100934.63;;;13.85;100.00
13348;BME280;6743;49.934;9.138;2023-04-30T07:54:48;100929.63;;;13.90;100.00
13348;BME280;6743;49.934;9.138;2023-04-30T07:57:15;100930.12;;;13.94;100.00
13348;BME280;6743;49.934;9.138;2023-04-30T07:59:41;100934.09;;;13.98;100.00
13348;BME280;6743;49.934;9.138;2023-04-30T08:02:08;100931.13;;;14.01;100.00
13348;BME280;6743;49.934;9.138;2023-04-30T08:04:34;100941.41;;;14.12;100.00
13348;BME280;6743;49.934;9.138;2023-04-30T08:07:00;100940.41;;;14.13;100.00
13348;BME280;6743;49.934;9.138;2023-04-30T08:09:26;100935.22;;;14.19;100.00
13348;BME280;6743;49.934;9.138;2023-04-30T08:11:52;100947.03;;;14.25;100.00
13348;BME280;6743;49.934;9.138;2023-04-30T08:14:19;100944.03;;;14.28;100.00
13348;BME280;6743;49.934;9.138;2023-04-30T08:16:46;100937.72;;;14.29;100.00
13348;BME280;6743;49.934;9.138;2023-04-30T08:19:12;100948.03;;;14.32;100.00
13348;BME280;6743;49.934;9.138;2023-04-30T08:21:38;100945.69;;;14.37;100.00
13348;BME280;6743;49.934;9.138;2023-04-30T08:24:04;100942.03;;;14.38;100.00
13348;BME280;6743;49.934;9.138;2023-04-30T08:26:30;100949.03;;;14.39;100.00
13348;BME280;6743;49.934;9.138;2023-04-30T08:28:56;100945.66;;;14.45;100.00
13348;BME280;6743;49.934;9.138;2023-04-30T08:31:23;100944.31;;;14.49;100.00
13348;BME280;6743;49.934;9.138;2023-04-30T08:33:49;100942.66;;;14.48;97.90
13348;BME280;6743;49.934;9.138;2023-04-30T08:36:15;100941.13;;;14.54;100.00
13348;BME280;6743;49.934;9.138;2023-04-30T08:38:41;100944.94;;;14.59;100.00
13348;BME280;6743;49.934;9.138;2023-04-30T08:41:10;100954.12;;;14.65;100.00
13348;BME280;6743;49.934;9.138;2023-04-30T08:43:36;100943.72;;;14.70;100.00
13348;BME280;6743;49.934;9.138;2023-04-30T08:46:03;100944.41;;;14.72;99.22
13348;BME280;6743;49.934;9.138;2023-04-30T08:48:30;100942.37;;;14.74;99.38
13348;BME280;6743;49.934;9.138;2023-04-30T08:50:59;100942.19;;;14.76;99.62
13348;BME280;6743;49.934;9.138;2023-04-30T08:53:26;100942.69;;;14.79;100.00
13348;BME280;6743;49.934;9.138;2023-04-30T08:55:52;100941.84;;;14.79;96.42
13348;BME280;6743;49.934;9.138;2023-04-30T08:58:18;100944.81;;;14.84;97.47
13348;BME280;6743;49.934;9.138;2023-04-30T09:00:44;100928.13;;;14.82;100.00
13348;BME280;6743;49.934;9.138;2023-04-30T09:03:10;100931.06;;;14.95;100.00
13348;BME280;6743;49.934;9.138;2023-04-30T09:05:37;100944.03;;;15.06;100.00
13348;BME280;6743;49.934;9.138;2023-04-30T09:08:03;100950.22;;;15.07;91.58
13348;BME280;6743;49.934;9.138;2023-04-30T09:10:32;100946.88;;;15.05;89.03
13348;BME280;6743;49.934;9.138;2023-04-30T09:12:58;100946.69;;;15.06;90.76
13348;BME280;6743;49.934;9.138;2023-04-30T09:15:25;100941.81;;;15.10;92.47
13348;BME280;6743;49.934;9.138;2023-04-30T09:18:05;100935.97;;;15.14;96.37
13348;BME280;6743;49.934;9.138;2023-04-30T09:20:31;100938.63;;;15.14;90.19
13348;BME280;6743;49.934;9.138;2023-04-30T09:23:05;100930.06;;;15.19;94.35
13348;BME280;6743;49.934;9.138;2023-04-30T09:25:37;100929.19;;;15.26;88.44
13348;BME280;6743;49.934;9.138;2023-04-30T09:28:08;100921.28;;;15.33;99.63
13348;BME280;6743;49.934;9.138;2023-04-30T09:30:34;100918.87;;;15.38;100.00
13348;BME280;6743;49.934;9.138;2023-04-30T09:33:01;100925.72;;;15.41;94.72
13348;BME280;6743;49.934;9.138;2023-04-30T09:35:28;100929.34;;;15.48;86.59
13348;BME280;6743;49.934;9.138;2023-04-30T09:37:54;100929.97;;;15.50;83.83
13348;BME280;6743;49.934;9.138;2023-04-30T09:40:33;100930.62;;;15.52;84.41
13348;BME280;6743;49.934;9.138;2023-04-30T09:42:59;100917.41;;;15.58;88.81
13348;BME280;6743;49.934;9.138;2023-04-30T09:45:25;100914.38;;;15.61;89.33
13348;BME280;6743;49.934;9.138;2023-04-30T09:47:52;100915.00;;;15.63;84.49
13348;BME280;6743;49.934;9.138;2023-04-30T09:50:18;100907.91;;;15.70;85.86
13348;BME280;6743;49.934;9.138;2023-04-30T09:52:50;100899.28;;;15.83;92.36
13348;BME280;6743;49.934;9.138;2023-04-30T09:55:17;100893.47;;;15.94;90.50
13348;BME280;6743;49.934;9.138;2023-04-30T09:57:44;100900.31;;;15.97;88.16
13348;BME280;6743;49.934;9.138;2023-04-30T10:00:13;100901.78;;;15.99;88.56
13348;BME280;6743;49.934;9.138;2023-04-30T10:02:40;100896.41;;;15.99;88.11
13348;BME280;6743;49.934;9.138;2023-04-30T10:05:07;100903.25;;;16.02;86.53
13348;BME280;6743;49.934;9.138;2023-04-30T10:07:35;100898.25;;;15.99;85.33
13348;BME280;6743;49.934;9.138;2023-04-30T10:10:07;100891.72;;;16.01;85.54
13348;BME280;6743;49.934;9.138;2023-04-30T10:12:38;100882.03;;;16.00;89.80
13348;BME280;6743;49.934;9.138;2023-04-30T10:15:10;100877.16;;;16.04;83.60
13348;BME280;6743;49.934;9.138;2023-04-30T10:17:38;100884.69;;;16.00;81.07
13348;BME280;6743;49.934;9.138;2023-04-30T10:20:08;100870.22;;;16.09;88.26
13348;BME280;6743;49.934;9.138;2023-04-30T10:22:34;100878.69;;;16.13;85.03
13348;BME280;6743;49.934;9.138;2023-04-30T10:25:01;100877.31;;;16.17;84.79
13348;BME280;6743;49.934;9.138;2023-04-30T10:27:28;100869.91;;;16.19;85.68
13348;BME280;6743;49.934;9.138;2023-04-30T10:29:54;100856.59;;;16.26;83.62
13348;BME280;6743;49.934;9.138;2023-04-30T10:32:21;100853.75;;;16.27;84.98
13348;BME280;6743;49.934;9.138;2023-04-30T10:34:53;100853.56;;;16.29;88.21
13348;BME280;6743;49.934;9.138;2023-04-30T10:37:31;100854.09;;;16.39;85.30
13348;BME280;6743;49.934;9.138;2023-04-30T10:39:59;100852.72;;;16.43;82.45
13348;BME280;6743;49.934;9.138;2023-04-30T10:42:26;100841.59;;;16.46;83.40
13348;BME280;6743;49.934;9.138;2023-04-30T10:44:52;100834.69;;;16.51;85.67
13348;BME280;6743;49.934;9.138;2023-04-30T10:47:18;100833.09;;;16.57;87.31
13348;BME280;6743;49.934;9.138;2023-04-30T10:49:46;100827.84;;;16.64;84.36
13348;BME280;6743;49.934;9.138;2023-04-30T10:52:25;100823.44;;;16.77;89.03
13348;BME280;6743;49.934;9.138;2023-04-30T10:54:51;100824.72;;;16.81;85.55
13348;BME280;6743;49.934;9.138;2023-04-30T10:57:17;100824.34;;;16.84;85.43
13348;BME280;6743;49.934;9.138;2023-04-30T10:59:51;100817.13;;;16.85;86.48
13348;BME280;6743;49.934;9.138;2023-04-30T11:02:17;100799.22;;;16.85;84.62
13348;BME280;6743;49.934;9.138;2023-04-30T11:05:12;100810.81;;;16.92;79.75
13348;BME280;6743;49.934;9.138;2023-04-30T11:07:46;100810.22;;;16.97;78.36
13348;BME280;6743;49.934;9.138;2023-04-30T11:10:14;100810.28;;;17.04;82.06
13348;BME280;6743;49.934;9.138;2023-04-30T11:12:40;100817.19;;;17.13;84.76
13348;BME280;6743;49.934;9.138;2023-04-30T11:15:14;100809.03;;;17.27;84.71
13348;BME280;6743;49.934;9.138;2023-04-30T11:17:42;100823.06;;;17.29;75.74
13348;BME280;6743;49.934;9.138;2023-04-30T11:20:12;100810.25;;;17.25;75.30
13348;BME280;6743;49.934;9.138;2023-04-30T11:22:38;100815.19;;;17.21;79.91
13348;BME280;6743;49.934;9.138;2023-04-30T11:25:05;100810.00;;;17.20;76.22
13348;BME280;6743;49.934;9.138;2023-04-30T11:27:34;100815.63;;;17.25;75.19
13348;BME280;6743;49.934;9.138;2023-04-30T11:30:02;100811.72;;;17.27;71.93
13348;BME280;6743;49.934;9.138;2023-04-30T11:32:34;100811.38;;;17.37;76.86
13348;BME280;6743;49.934;9.138;2023-04-30T11:35:01;100801.31;;;17.46;79.01
13348;BME280;6743;49.934;9.138;2023-04-30T11:37:30;100803.81;;;17.47;73.77
13348;BME280;6743;49.934;9.138;2023-04-30T11:39:59;100797.44;;;17.48;75.99
13348;BME280;6743;49.934;9.138;2023-04-30T11:42:29;100789.50;;;17.61;76.16
13348;BME280;6743;49.934;9.138;2023-04-30T11:45:05;100792.72;;;17.57;72.45
13348;BME280;6743;49.934;9.138;2023-04-30T11:47:38;100793.13;;;17.54;74.46
13348;BME280;6743;49.934;9.138;2023-04-30T11:50:06;100793.22;;;17.67;75.49
13348;BME280;6743;49.934;9.138;2023-04-30T11:52:32;100792.78;;;17.63;73.91
13348;BME280;6743;49.934;9.138;2023-04-30T11:54:58;100785.38;;;17.65;76.25
13348;BME280;6743;49.934;9.138;2023-04-30T11:57:25;100777.34;;;17.72;76.47
13348;BME280;6743;49.934;9.138;2023-04-30T11:59:51;100778.63;;;17.76;74.24
13348;BME280;6743;49.934;9.138;2023-04-30T12:02:17;100779.87;;;17.80;76.80
13348;BME280;6743;49.934;9.138;2023-04-30T12:04:43;100782.78;;;17.85;76.12
13348;BME280;6743;49.934;9.138;2023-04-30T12:07:09;100786.31;;;17.86;72.14
13348;BME280;6743;49.934;9.138;2023-04-30T12:09:51;100783.63;;;17.86;71.53
13348;BME280;6743;49.934;9.138;2023-04-30T12:12:25;100777.03;;;17.88;74.00
13348;BME280;6743;49.934;9.138;2023-04-30T12:14:51;100778.91;;;17.94;75.42
13348;BME280;6743;49.934;9.138;2023-04-30T12:17:29;100779.59;;;18.03;74.17
13348;BME280;6743;49.934;9.138;2023-04-30T12:19:56;100773.78;;;18.06;72.30
13348;BME280;6743;49.934;9.138;2023-04-30T12:22:23;100770.72;;;18.09;70.99
13348;BME280;6743;49.934;9.138;2023-04-30T12:24:49;100765.38;;;18.16;73.98
13348;BME280;6743;49.934;9.138;2023-04-30T12:27:15;100768.06;;;18.22;74.01
13348;BME280;6743;49.934;9.138;2023-04-30T12:29:43;100764.78;;;18.33;74.50
13348;BME280;6743;49.934;9.138;2023-04-30T12:32:09;100766.69;;;18.46;77.47
13348;BME280;6743;49.934;9.138;2023-04-30T12:34:36;100772.34;;;18.64;73.81
13348;BME280;6743;49.934;9.138;2023-04-30T12:37:02;100770.47;;;18.71;73.47
13348;BME280;6743;49.934;9.138;2023-04-30T12:39:32;100770.28;;;18.73;74.51
13348;BME280;6743;49.934;9.138;2023-04-30T12:41:59;100774.19;;;18.77;70.28
13348;BME280;6743;49.934;9.138;2023-04-30T12:44:27;100772.16;;;18.79;71.25
13348;BME280;6743;49.934;9.138;2023-04-30T12:46:55;100765.94;;;18.85;74.91
13348;BME280;6743;49.934;9.138;2023-04-30T12:49:23;100772.16;;;18.99;75.85
13348;BME280;6743;49.934;9.138;2023-04-30T12:51:49;100764.28;;;18.97;67.39
13348;BME280;6743;49.934;9.138;2023-04-30T12:54:24;100756.00;;;18.99;72.00